createdAt,value
2018-12-21T00:00:47.395Z,18.05
2018-12-21T00:03:16.177Z,17.02
2018-12-21T00:05:45.100Z,16.50
2018-12-21T00:08:13.904Z,16.47
2018-12-21T00:10:42.763Z,17.60
2018-12-21T00:13:11.815Z,17.40
2018-12-21T00:15:40.923Z,19.32
2018-12-21T00:18:09.845Z,19.83
2018-12-21T00:20:38.786Z,17.30
2018-12-21T00:23:07.596Z,17.83
2018-12-21T00:25:36.451Z,16.17
2018-12-21T00:28:05.308Z,19.73
2018-12-21T00:30:33.244Z,16.70
2018-12-21T00:33:07.543Z,16.17
2018-12-21T00:35:41.384Z,15.57
2018-12-21T00:38:18.389Z,17.30
2018-12-21T00:40:52.165Z,18.60
2018-12-21T00:43:35.651Z,15.63
2018-12-21T00:46:13.725Z,16.93
2018-12-21T00:48:42.705Z,17.20
2018-12-21T00:51:11.536Z,16.20
2018-12-21T00:53:41.093Z,16.02
2018-12-21T00:56:10.140Z,16.23
2018-12-21T00:58:38.802Z,18.47
2018-12-21T01:01:07.693Z,17.67
2018-12-21T01:03:36.584Z,18.20
2018-12-21T01:06:05.452Z,17.73
2018-12-21T01:08:34.112Z,18.57
2018-12-21T01:11:02.976Z,18.97
2018-12-21T01:13:31.824Z,18.00
2018-12-21T01:16:00.475Z,16.37
2018-12-21T01:18:29.287Z,17.17
2018-12-21T01:20:58.179Z,15.83
2018-12-21T01:23:27.079Z,17.17
2018-12-21T01:25:55.995Z,17.07
2018-12-21T01:28:24.839Z,18.25
2018-12-21T01:30:53.613Z,16.73
2018-12-21T01:33:22.559Z,17.57
2018-12-21T01:35:51.327Z,17.90
2018-12-21T01:38:20.003Z,20.00
2018-12-21T01:40:48.834Z,22.07
2018-12-21T01:43:17.528Z,18.30
2018-12-21T01:45:46.354Z,17.27
2018-12-21T01:48:15.125Z,17.85
2018-12-21T01:50:43.917Z,18.57
2018-12-21T01:53:12.628Z,17.37
2018-12-21T01:55:41.411Z,18.63
2018-12-21T01:58:11.424Z,20.10
2018-12-21T02:00:41.262Z,17.50
2018-12-21T02:03:10.076Z,19.53
2018-12-21T02:05:38.760Z,17.63
2018-12-21T02:08:07.486Z,20.53
2018-12-21T02:10:36.271Z,20.37
2018-12-21T02:13:04.962Z,17.30
2018-12-21T02:15:33.654Z,17.97
2018-12-21T02:18:02.495Z,18.17
2018-12-21T02:20:31.472Z,18.00
2018-12-21T02:23:00.150Z,17.13
2018-12-21T02:25:28.974Z,17.95
2018-12-21T02:27:57.679Z,17.43
2018-12-21T02:30:26.421Z,18.07
2018-12-21T02:32:55.337Z,17.27
2018-12-21T02:35:24.023Z,18.93
2018-12-21T02:37:52.685Z,20.27
2018-12-21T02:40:21.492Z,22.50
2018-12-21T02:42:50.180Z,19.80
2018-12-21T02:45:18.893Z,18.25
2018-12-21T02:47:47.607Z,17.90
2018-12-21T02:50:16.321Z,17.57
2018-12-21T02:52:44.978Z,17.17
2018-12-21T02:55:13.719Z,17.90
2018-12-21T02:57:42.352Z,18.70
2018-12-21T03:00:11.573Z,17.17
2018-12-21T03:02:41.360Z,18.00
2018-12-21T03:05:10.094Z,16.30
2018-12-21T03:07:38.781Z,17.47
2018-12-21T03:10:08.346Z,16.63
2018-12-21T03:12:37.051Z,16.20
2018-12-21T03:15:06.593Z,16.30
2018-12-21T03:17:35.458Z,16.03
2018-12-21T03:20:04.381Z,16.90
2018-12-21T03:22:33.020Z,16.80
2018-12-21T03:25:01.960Z,15.17
2018-12-21T03:27:30.636Z,15.73
2018-12-21T03:29:59.377Z,14.40
2018-12-21T03:32:28.223Z,14.83
2018-12-21T03:34:56.914Z,14.57
2018-12-21T03:37:25.695Z,13.90
2018-12-21T03:39:54.483Z,13.95
2018-12-21T03:42:23.192Z,13.95
2018-12-21T03:44:51.901Z,14.47
2018-12-21T03:47:20.761Z,15.07
2018-12-21T03:49:49.434Z,13.43
2018-12-21T03:52:24.125Z,15.50
2018-12-21T03:54:48.867Z,14.00
2018-12-21T03:57:17.550Z,13.62
2018-12-21T03:59:46.249Z,13.40
2018-12-21T04:02:15.377Z,12.97
2018-12-21T04:04:44.036Z,14.07
2018-12-21T04:07:12.791Z,13.20
2018-12-21T04:09:41.553Z,13.40
2018-12-21T04:12:11.295Z,13.98
2018-12-21T04:14:40.079Z,15.37
2018-12-21T04:17:08.940Z,13.63
2018-12-21T04:19:37.725Z,12.57
2018-12-21T04:22:06.541Z,12.60
2018-12-21T04:24:35.461Z,11.17
2018-12-21T04:27:04.221Z,12.50
2018-12-21T04:29:33.043Z,11.67
2018-12-21T04:32:01.930Z,12.20
2018-12-21T04:34:30.716Z,11.43
2018-12-21T04:36:59.426Z,10.07
2018-12-21T04:39:28.289Z,9.70
2018-12-21T04:41:56.971Z,10.65
2018-12-21T04:44:25.709Z,11.00
2018-12-21T04:46:54.631Z,12.47
2018-12-21T04:49:23.316Z,10.55
2018-12-21T04:51:51.997Z,11.13
2018-12-21T04:54:20.686Z,12.03
2018-12-21T04:56:49.346Z,10.33
2018-12-21T04:59:17.977Z,10.70
2018-12-21T05:01:46.778Z,10.30
2018-12-21T05:04:20.224Z,11.07
2018-12-21T05:06:46.166Z,10.93
2018-12-21T05:09:15.905Z,9.90
2018-12-21T05:11:44.611Z,9.77
2018-12-21T05:14:13.331Z,10.43
2018-12-21T05:16:42.271Z,10.53
2018-12-21T05:19:11.346Z,10.17
2018-12-21T05:21:40.156Z,9.87
2018-12-21T05:24:09.099Z,10.40
2018-12-21T05:26:37.797Z,9.17
2018-12-21T05:29:06.549Z,8.40
2018-12-21T05:31:35.289Z,7.90
2018-12-21T05:34:04.013Z,9.07
2018-12-21T05:36:32.792Z,8.97
2018-12-21T05:39:01.553Z,8.50
2018-12-21T05:41:30.627Z,8.77
2018-12-21T05:43:59.334Z,7.95
2018-12-21T05:46:28.206Z,8.25
2018-12-21T05:48:57.014Z,8.50
2018-12-21T05:51:25.804Z,8.67
2018-12-21T05:53:54.715Z,6.83
2018-12-21T05:56:23.486Z,9.25
2018-12-21T05:58:52.254Z,7.17
2018-12-21T06:01:21.083Z,7.12
2018-12-21T06:03:49.844Z,7.10
2018-12-21T06:06:18.600Z,5.50
2018-12-21T06:08:47.645Z,6.73
2018-12-21T06:11:16.402Z,6.78
2018-12-21T06:13:45.193Z,12.20
2018-12-21T06:16:14.092Z,13.53
2018-12-21T06:18:42.776Z,8.63
2018-12-21T06:21:11.465Z,9.50
2018-12-21T06:23:40.273Z,6.00
2018-12-21T06:26:09.064Z,9.37
2018-12-21T06:28:37.742Z,6.83
2018-12-21T06:31:06.597Z,5.77
2018-12-21T06:33:35.303Z,5.42
2018-12-21T06:36:03.968Z,4.73
2018-12-21T06:38:32.831Z,5.60
2018-12-21T06:41:01.468Z,5.30
2018-12-21T06:43:30.299Z,5.03
2018-12-21T06:45:59.434Z,6.67
2018-12-21T06:48:28.244Z,5.87
2018-12-21T06:50:56.972Z,7.95
2018-12-21T06:53:25.827Z,9.03
2018-12-21T06:55:54.558Z,8.00
2018-12-21T06:58:23.398Z,6.33
2018-12-21T07:00:52.364Z,4.97
2018-12-21T07:03:21.182Z,9.13
2018-12-21T07:05:49.976Z,6.10
2018-12-21T07:08:18.763Z,7.43
2018-12-21T07:10:47.547Z,7.33
2018-12-21T07:13:16.322Z,6.35
2018-12-21T07:15:45.272Z,7.63
2018-12-21T07:18:13.958Z,6.47
2018-12-21T07:20:42.667Z,10.20
2018-12-21T07:23:11.495Z,6.80
2018-12-21T07:25:40.217Z,10.57
2018-12-21T07:28:08.982Z,8.40
2018-12-21T07:30:37.858Z,9.80
2018-12-21T07:33:06.563Z,6.60
2018-12-21T07:35:35.280Z,7.77
2018-12-21T07:38:04.136Z,7.30
2018-12-21T07:40:32.794Z,9.47
2018-12-21T07:43:01.532Z,7.85
2018-12-21T07:45:30.386Z,8.87
2018-12-21T07:47:59.104Z,12.50
2018-12-21T07:50:27.818Z,9.27
2018-12-21T07:52:56.634Z,6.95
2018-12-21T07:55:25.448Z,13.00
2018-12-21T07:57:54.132Z,7.70
2018-12-21T08:00:23.762Z,11.50
2018-12-21T08:02:52.544Z,10.18
2018-12-21T08:05:21.301Z,33.73
2018-12-21T08:07:50.072Z,12.28
2018-12-21T08:10:20.286Z,10.90
2018-12-21T08:12:48.972Z,6.77
2018-12-21T08:15:17.864Z,8.65
2018-12-21T08:17:46.548Z,7.53
2018-12-21T08:20:15.230Z,7.37
2018-12-21T08:22:44.049Z,5.87
2018-12-21T08:25:12.795Z,18.93
2018-12-21T08:27:41.664Z,10.08
2018-12-21T08:30:11.103Z,10.37
2018-12-21T08:32:39.894Z,6.50
2018-12-21T08:35:08.734Z,6.85
2018-12-21T08:37:37.504Z,6.00
2018-12-21T08:40:08.517Z,9.20
2018-12-21T08:42:37.401Z,9.33
2018-12-21T08:45:08.880Z,9.23
2018-12-21T08:47:37.847Z,7.73
2018-12-21T08:50:09.527Z,6.95
2018-12-21T08:52:38.228Z,7.30
2018-12-21T08:55:07.720Z,6.60
2018-12-21T08:57:36.876Z,5.40
2018-12-21T09:00:07.996Z,8.10
2018-12-21T09:02:36.684Z,9.33
2018-12-21T09:05:05.715Z,4.30
2018-12-21T09:07:34.497Z,6.57
2018-12-21T09:10:03.292Z,5.73
2018-12-21T09:12:32.071Z,7.60
2018-12-21T09:15:00.932Z,6.73
2018-12-21T09:17:29.843Z,6.27
2018-12-21T09:19:58.742Z,6.35
2018-12-21T09:22:27.437Z,7.65
2018-12-21T09:24:56.184Z,7.30
2018-12-21T09:27:25.107Z,5.40
2018-12-21T09:29:53.888Z,6.60
2018-12-21T09:32:22.740Z,10.43
2018-12-21T09:34:51.556Z,7.60
2018-12-21T09:37:20.253Z,7.00
2018-12-21T09:39:48.940Z,7.27
2018-12-21T09:42:17.795Z,7.12
2018-12-21T09:44:52.424Z,12.63
2018-12-21T09:47:17.708Z,7.97
2018-12-21T09:49:46.755Z,5.97
2018-12-21T09:52:15.672Z,7.37
2018-12-21T09:54:44.380Z,6.53
2018-12-21T09:57:13.168Z,7.50
2018-12-21T09:59:41.826Z,8.00
2018-12-21T10:02:10.489Z,9.03
2018-12-21T10:04:39.281Z,6.93
2018-12-21T10:07:07.959Z,8.67
2018-12-21T10:09:36.603Z,9.30
2018-12-21T10:12:05.344Z,6.87
2018-12-21T10:14:34.073Z,8.20
2018-12-21T10:17:02.792Z,8.13
2018-12-21T10:19:31.869Z,5.90
2018-12-21T10:22:00.604Z,7.33
2018-12-21T10:24:29.378Z,12.30
2018-12-21T10:26:58.274Z,8.77
2018-12-21T10:29:27.068Z,11.17
2018-12-21T10:31:55.851Z,7.77
2018-12-21T10:34:25.628Z,8.63
2018-12-21T10:36:54.317Z,9.50
2018-12-21T10:39:23.401Z,8.17
2018-12-21T10:41:52.143Z,8.33
2018-12-21T10:44:20.797Z,8.37
2018-12-21T10:46:49.502Z,12.27
2018-12-21T10:49:18.243Z,9.05
2018-12-21T10:51:46.965Z,10.27
2018-12-21T10:54:15.818Z,9.98
2018-12-21T10:56:44.630Z,7.93
2018-12-21T10:59:20.937Z,7.23
2018-12-21T11:01:44.047Z,8.93
2018-12-21T11:04:13.038Z,9.45
2018-12-21T11:06:41.808Z,7.25
2018-12-21T11:09:10.467Z,6.10
2018-12-21T11:11:39.243Z,7.97
2018-12-21T11:14:07.928Z,7.03
2018-12-21T11:16:36.735Z,8.07
2018-12-21T11:19:05.492Z,5.70
2018-12-21T11:21:34.156Z,7.27
2018-12-21T11:24:02.846Z,8.53
2018-12-21T11:26:31.652Z,9.13
2018-12-21T11:29:00.372Z,8.10
2018-12-21T11:31:29.299Z,9.17
2018-12-21T11:33:58.248Z,7.47
2018-12-21T11:36:27.001Z,9.77
2018-12-21T11:38:55.668Z,9.80
2018-12-21T11:41:24.489Z,7.00
2018-12-21T11:43:53.201Z,4.83
2018-12-21T11:46:21.883Z,7.77
2018-12-21T11:48:51.007Z,8.43
2018-12-21T11:51:19.691Z,9.43
2018-12-21T11:53:48.516Z,6.33
2018-12-21T11:56:17.304Z,6.07
2018-12-21T11:58:45.987Z,8.73
2018-12-21T12:01:14.675Z,6.83
2018-12-21T12:03:43.514Z,6.30
2018-12-21T12:06:12.150Z,5.97
2018-12-21T12:08:42.047Z,5.92
2018-12-21T12:11:10.778Z,4.28
2018-12-21T12:13:39.461Z,4.70
2018-12-21T12:16:08.149Z,6.90
2018-12-21T12:18:36.886Z,7.20
2018-12-21T12:21:05.619Z,5.90
2018-12-21T12:23:34.289Z,4.63
2018-12-21T12:26:03.101Z,5.23
2018-12-21T12:28:31.861Z,13.60
2018-12-21T12:31:00.604Z,5.90
2018-12-21T12:33:29.307Z,4.13
2018-12-21T12:35:57.973Z,6.45
2018-12-21T12:38:26.636Z,6.13
2018-12-21T12:40:55.694Z,4.40
2018-12-21T12:43:24.585Z,5.12
2018-12-21T12:45:53.312Z,5.13
2018-12-21T12:48:22.205Z,5.87
2018-12-21T12:50:50.912Z,6.57
2018-12-21T12:53:19.627Z,7.20
2018-12-21T12:55:48.771Z,8.13
2018-12-21T12:58:17.502Z,5.62
2018-12-21T13:00:46.148Z,7.93
2018-12-21T13:03:15.290Z,7.17
2018-12-21T13:05:44.107Z,7.17
2018-12-21T13:08:12.873Z,7.53
2018-12-21T13:10:41.959Z,6.92
2018-12-21T13:13:11.273Z,5.17
2018-12-21T13:15:40.096Z,5.20
2018-12-21T13:18:08.870Z,5.27
2018-12-21T13:20:37.722Z,4.87
2018-12-21T13:23:06.441Z,5.37
2018-12-21T13:25:35.211Z,4.03
2018-12-21T13:28:04.064Z,4.03
2018-12-21T13:30:32.889Z,3.93
2018-12-21T13:33:01.600Z,5.37
2018-12-21T13:35:30.247Z,5.43
2018-12-21T13:37:58.987Z,6.22
2018-12-21T13:40:28.145Z,5.85
2018-12-21T13:42:56.961Z,4.50
2018-12-21T13:45:25.823Z,4.67
2018-12-21T13:47:54.815Z,2.80
2018-12-21T13:50:23.700Z,3.72
2018-12-21T13:52:52.471Z,3.25
2018-12-21T13:55:21.688Z,2.87
2018-12-21T13:57:50.510Z,3.92
2018-12-21T14:00:19.168Z,3.40
2018-12-21T14:02:47.968Z,3.35
2018-12-21T14:05:16.645Z,3.05
2018-12-21T14:07:45.280Z,2.93
2018-12-21T14:10:14.119Z,2.55
2018-12-21T14:12:42.917Z,3.73
2018-12-21T14:15:12.037Z,5.05
2018-12-21T14:17:40.792Z,3.77
2018-12-21T14:20:11.685Z,3.00
2018-12-21T14:22:40.392Z,3.50
2018-12-21T14:25:09.788Z,3.00
2018-12-21T14:27:38.536Z,3.23
2018-12-21T14:30:08.841Z,3.27
2018-12-21T14:32:37.655Z,4.00
2018-12-21T14:35:07.432Z,3.50
2018-12-21T14:37:37.002Z,3.20
2018-12-21T14:40:06.292Z,6.20
2018-12-21T14:42:35.186Z,4.00
2018-12-21T14:45:04.179Z,3.43
2018-12-21T14:47:33.155Z,2.93
2018-12-21T14:50:02.114Z,2.80
2018-12-21T14:52:31.248Z,3.10
2018-12-21T14:55:00.473Z,2.75
2018-12-21T14:57:29.178Z,3.43
2018-12-21T14:59:59.275Z,3.25
2018-12-21T15:02:28.124Z,3.67
2018-12-21T15:04:57.089Z,2.80
2018-12-21T15:07:26.983Z,4.07
2018-12-21T15:09:55.721Z,3.23
2018-12-21T15:12:24.400Z,3.20
2018-12-21T15:14:53.204Z,3.10
2018-12-21T15:17:23.373Z,3.67
2018-12-21T15:19:52.475Z,4.20
2018-12-21T15:22:21.170Z,3.20
2018-12-21T15:24:50.043Z,3.25
2018-12-21T15:27:18.736Z,2.80
2018-12-21T15:29:47.451Z,2.87
2018-12-21T15:32:16.228Z,4.97
2018-12-21T15:34:44.887Z,3.15
2018-12-21T15:37:13.593Z,3.53
2018-12-21T15:39:42.491Z,3.70
2018-12-21T15:42:12.091Z,4.42
2018-12-21T15:44:40.801Z,3.67
2018-12-21T15:47:09.611Z,4.17
2018-12-21T15:49:38.281Z,3.47
2018-12-21T15:52:06.915Z,4.37
2018-12-21T15:54:35.645Z,3.83
2018-12-21T15:57:04.470Z,3.60
2018-12-21T15:59:33.162Z,3.20
2018-12-21T16:02:02.212Z,3.40
2018-12-21T16:04:30.884Z,4.30
2018-12-21T16:06:59.577Z,3.70
2018-12-21T16:09:28.292Z,6.27
2018-12-21T16:11:56.977Z,3.73
2018-12-21T16:14:34.042Z,4.37
2018-12-21T16:16:56.677Z,3.50
2018-12-21T16:19:25.325Z,3.07
2018-12-21T16:21:53.989Z,3.45
2018-12-21T16:24:22.803Z,3.58
2018-12-21T16:26:51.520Z,3.60
2018-12-21T16:29:20.169Z,4.35
2018-12-21T16:31:48.855Z,3.55
2018-12-21T16:34:17.499Z,3.77
2018-12-21T16:36:46.192Z,4.00
2018-12-21T16:39:15.075Z,3.67
2018-12-21T16:41:43.770Z,3.93
2018-12-21T16:44:12.472Z,4.60
2018-12-21T16:46:42.284Z,3.80
2018-12-21T16:49:10.951Z,4.50
2018-12-21T16:51:39.681Z,10.77
2018-12-21T16:54:08.539Z,5.63
2018-12-21T16:56:37.200Z,5.90
2018-12-21T16:59:05.911Z,4.80
2018-12-21T17:01:34.733Z,4.90
2018-12-21T17:04:03.567Z,6.83
2018-12-21T17:06:32.256Z,6.13
2018-12-21T17:09:01.086Z,5.57
2018-12-21T17:11:29.789Z,5.23
2018-12-21T17:13:58.544Z,6.97
2018-12-21T17:16:27.404Z,6.35
2018-12-21T17:18:56.143Z,6.25
2018-12-21T17:21:25.841Z,6.35
2018-12-21T17:23:54.680Z,7.37
2018-12-21T17:26:23.468Z,7.60
2018-12-21T17:28:52.212Z,7.60
2018-12-21T17:31:21.060Z,7.70
2018-12-21T17:33:49.887Z,8.60
2018-12-21T17:36:18.697Z,7.60
2018-12-21T17:38:47.491Z,9.33
2018-12-21T17:41:16.236Z,9.80
2018-12-21T17:43:44.933Z,9.70
2018-12-21T17:46:13.660Z,9.37
2018-12-21T17:48:42.393Z,8.93
2018-12-21T17:51:11.083Z,8.47
2018-12-21T17:53:39.814Z,9.07
2018-12-21T17:56:08.581Z,8.30
2018-12-21T17:58:37.271Z,8.30
2018-12-21T18:01:07.082Z,8.37
2018-12-21T18:03:46.699Z,7.37
2018-12-21T18:06:15.552Z,6.40
2018-12-21T18:08:44.272Z,6.70
2018-12-21T18:11:13.136Z,6.53
2018-12-21T18:13:42.436Z,6.12
2018-12-21T18:16:11.214Z,4.75
2018-12-21T18:18:40.038Z,5.80
2018-12-21T18:21:08.885Z,5.53
2018-12-21T18:23:38.576Z,6.10
2018-12-21T18:26:07.295Z,6.67
2018-12-21T18:28:36.189Z,8.13
2018-12-21T18:31:42.842Z,6.37
2018-12-21T18:34:16.332Z,6.15
2018-12-21T18:36:45.052Z,7.87
2018-12-21T18:39:13.757Z,5.40
2018-12-21T18:41:42.588Z,5.20
2018-12-21T18:44:12.236Z,4.50
2018-12-21T18:46:41.069Z,8.47
2018-12-21T18:49:09.940Z,6.73
2018-12-21T18:51:38.675Z,7.97
2018-12-21T18:54:07.350Z,9.30
2018-12-21T18:56:47.168Z,7.47
2018-12-21T18:59:12.338Z,11.50
2018-12-21T19:01:41.000Z,8.73
2018-12-21T19:04:09.805Z,8.30
2018-12-21T19:06:38.954Z,10.87
2018-12-21T19:09:07.692Z,8.50
2018-12-21T19:11:36.434Z,16.10
2018-12-21T19:14:05.187Z,11.37
2018-12-21T19:16:33.971Z,12.50
2018-12-21T19:19:03.108Z,11.83
2018-12-21T19:21:32.167Z,15.87
2018-12-21T19:24:00.959Z,13.07
2018-12-21T19:26:30.093Z,10.58
2018-12-21T19:28:58.863Z,10.87
2018-12-21T19:31:27.728Z,13.40
2018-12-21T19:33:56.597Z,13.17
2018-12-21T19:36:25.715Z,15.75
2018-12-21T19:38:54.374Z,9.95
2018-12-21T19:41:23.358Z,14.67
2018-12-21T19:43:52.153Z,12.33
2018-12-21T19:46:20.934Z,10.05
2018-12-21T19:48:49.758Z,13.43
2018-12-21T19:51:18.615Z,11.93
2018-12-21T19:53:48.270Z,11.33
2018-12-21T19:57:24.939Z,8.73
2018-12-21T19:59:53.705Z,10.90
2018-12-21T20:02:22.464Z,9.58
2018-12-21T20:04:51.423Z,15.03
2018-12-21T20:07:20.221Z,10.50
2018-12-21T20:09:49.032Z,12.50
2018-12-21T20:12:17.988Z,11.27
2018-12-21T20:14:47.178Z,11.50
2018-12-21T20:17:15.990Z,12.20
2018-12-21T20:19:44.874Z,12.80
2018-12-21T20:22:13.651Z,12.80
2018-12-21T20:24:42.579Z,10.28
2018-12-21T20:27:14.189Z,9.10
2018-12-21T20:29:43.397Z,10.23
2018-12-21T20:32:12.516Z,11.80
2018-12-21T20:34:41.497Z,8.43
2018-12-21T20:37:10.258Z,7.20
2018-12-21T20:39:42.191Z,4.57
2018-12-21T20:42:11.005Z,4.60
2018-12-21T20:44:39.797Z,4.93
2018-12-21T20:47:08.794Z,4.90
2018-12-21T20:49:37.608Z,4.47
2018-12-21T20:52:06.366Z,3.00
2018-12-21T20:54:35.332Z,4.10
2018-12-21T20:57:05.552Z,3.37
2018-12-21T20:59:34.379Z,4.27
2018-12-21T21:02:03.284Z,4.83
2018-12-21T21:04:32.126Z,3.87
2018-12-21T21:07:00.801Z,3.67
2018-12-21T21:09:29.826Z,3.27
2018-12-21T21:11:58.631Z,4.33
2018-12-21T21:14:27.416Z,3.40
2018-12-21T21:16:56.334Z,3.67
2018-12-21T21:19:26.904Z,4.08
2018-12-21T21:21:55.602Z,3.33
2018-12-21T21:24:26.703Z,3.80
2018-12-21T21:26:55.222Z,4.33
2018-12-21T21:29:23.985Z,4.63
2018-12-21T21:31:52.873Z,5.00
2018-12-21T21:34:21.791Z,5.30
2018-12-21T21:36:50.456Z,4.53
2018-12-21T21:39:19.443Z,5.50
2018-12-21T21:41:48.118Z,5.07
2018-12-21T21:44:18.411Z,6.50
2018-12-21T21:46:47.479Z,7.10
2018-12-21T21:49:16.247Z,7.57
2018-12-21T21:51:44.879Z,7.13
2018-12-21T21:54:13.916Z,5.47
2018-12-21T21:56:42.668Z,4.93
2018-12-21T21:59:12.320Z,5.07
2018-12-21T22:01:41.466Z,4.23
2018-12-21T22:04:10.100Z,3.13
2018-12-21T22:06:38.808Z,5.10
2018-12-21T22:09:08.108Z,3.27
2018-12-21T22:11:36.964Z,3.10
2018-12-21T22:14:05.644Z,5.70
2018-12-21T22:16:34.472Z,3.17
2018-12-21T22:19:03.136Z,2.97
2018-12-21T22:21:31.999Z,5.90
2018-12-21T22:24:00.873Z,4.10
2018-12-21T22:26:29.591Z,5.17
2018-12-21T22:28:58.616Z,6.85
2018-12-21T22:31:27.689Z,5.17
2018-12-21T22:33:56.362Z,6.13
2018-12-21T22:36:25.220Z,4.50
2018-12-21T22:38:53.975Z,3.60
2018-12-21T22:41:22.768Z,5.03
2018-12-21T22:43:51.507Z,7.10
2018-12-21T22:46:20.395Z,3.22
2018-12-21T22:48:49.075Z,5.03
2018-12-21T22:51:17.812Z,6.70
2018-12-21T22:53:46.656Z,4.03
2018-12-21T22:56:15.317Z,3.40
2018-12-21T22:58:47.253Z,4.00
2018-12-21T23:01:16.068Z,4.10
2018-12-21T23:03:44.716Z,6.53
2018-12-21T23:06:13.405Z,4.93
2018-12-21T23:08:42.618Z,3.60
2018-12-21T23:11:11.284Z,3.17
2018-12-21T23:13:40.220Z,3.53
2018-12-21T23:16:09.021Z,5.80
2018-12-21T23:18:37.657Z,3.60
2018-12-21T23:21:06.495Z,4.53
2018-12-21T23:23:35.202Z,3.73
2018-12-21T23:26:03.991Z,3.93
2018-12-21T23:28:32.799Z,4.13
2018-12-21T23:31:01.437Z,4.13
2018-12-21T23:33:30.066Z,4.23
2018-12-21T23:35:58.783Z,4.13
2018-12-21T23:38:27.549Z,4.53
2018-12-21T23:40:56.204Z,6.30
2018-12-21T23:43:25.093Z,2.80
2018-12-21T23:45:53.731Z,3.53
2018-12-21T23:48:22.489Z,5.97
2018-12-21T23:50:51.319Z,4.30
2018-12-21T23:53:19.997Z,3.57
2018-12-21T23:55:48.633Z,2.98
2018-12-21T23:58:17.344Z,4.37
